Time,TemperatureF,DewpointF,PressureIn,WindDirection,WindDirectionDegrees,WindSpeedMPH,WindSpeedGustMPH,Humidity,HourlyPrecipIn,Conditions,Clouds,dailyrainin,SoftwareType,DateUTC
2013-06-24 00:07:00,64.9,61.0,29.81,SW,232,3.0,5.0,86,0.00,,,0.00,weatherlink.com 1.10,2013-06-24 07:07:00,
2013-06-24 00:22:00,65.1,61.0,29.81,SW,232,3.0,5.0,86,0.00,,,0.00,weatherlink.com 1.10,2013-06-24 07:22:00,
2013-06-24 00:37:00,65.0,60.0,29.81,SW,232,1.0,5.0,85,0.00,,,0.00,weatherlink.com 1.10,2013-06-24 07:37:00,
2013-06-24 00:52:00,65.0,60.0,29.80,SW,232,6.0,6.0,85,0.00,,,0.00,weatherlink.com 1.10,2013-06-24 07:52:00,
2013-06-24 01:07:00,65.0,60.0,29.81,SW,214,7.0,7.0,85,0.00,,,0.00,weatherlink.com 1.10,2013-06-24 08:07:00,
2013-06-24 01:23:00,65.0,60.0,29.80,South,170,2.0,7.0,85,0.00,,,0.00,weatherlink.com 1.10,2013-06-24 08:23:00,
2013-06-24 01:37:00,64.9,60.0,29.80,South,169,6.0,8.0,84,0.00,,,0.00,weatherlink.com 1.10,2013-06-24 08:37:00,
2013-06-24 01:52:00,65.0,60.0,29.80,South,174,4.0,7.0,85,0.00,,,0.00,weatherlink.com 1.10,2013-06-24 08:52:00,
2013-06-24 02:07:00,65.0,60.0,29.80,South,173,4.0,8.0,85,0.00,,,0.00,weatherlink.com 1.10,2013-06-24 09:07:00,
2013-06-24 02:23:00,64.9,60.0,29.80,SSE,168,5.0,11.0,85,0.00,,,0.00,weatherlink.com 1.10,2013-06-24 09:23:00,
2013-06-24 02:38:00,64.9,61.0,29.81,South,180,7.0,11.0,86,0.00,,,0.00,weatherlink.com 1.10,2013-06-24 09:38:00,
2013-06-24 02:53:00,64.5,61.0,29.81,South,189,6.0,8.0,87,0.00,,,0.00,weatherlink.com 1.10,2013-06-24 09:53:00,
2013-06-24 03:23:00,64.5,60.0,29.81,SSE,161,5.0,11.0,86,0.00,,,0.00,weatherlink.com 1.10,2013-06-24 10:23:00,
2013-06-24 03:38:00,64.6,61.0,29.81,SSW,198,10.0,10.0,88,0.00,,,0.00,weatherlink.com 1.10,2013-06-24 10:38:00,
2013-06-24 04:08:00,64.1,61.0,29.82,South,191,9.0,9.0,89,0.00,,,0.00,weatherlink.com 1.10,2013-06-24 11:08:00,
2013-06-24 04:23:00,63.8,61.0,29.82,SSW,197,7.0,8.0,90,0.00,,,0.00,weatherlink.com 1.10,2013-06-24 11:23:00,
2013-06-24 04:38:00,63.4,61.0,29.82,South,188,5.0,9.0,90,0.00,,,0.00,weatherlink.com 1.10,2013-06-24 11:38:00,
2013-06-24 04:53:00,63.3,61.0,29.82,SSW,195,3.0,9.0,91,0.00,,,0.00,weatherlink.com 1.10,2013-06-24 11:53:00,
2013-06-24 05:08:00,63.4,61.0,29.83,SSW,194,3.0,7.0,91,0.00,,,0.00,weatherlink.com 1.10,2013-06-24 12:08:00,
2013-06-24 05:23:00,63.4,61.0,29.83,South,188,6.0,8.0,91,0.00,,,0.00,weatherlink.com 1.10,2013-06-24 12:23:00,
2013-06-24 05:38:00,63.2,61.0,29.84,South,190,5.0,9.0,91,0.00,,,0.00,weatherlink.com 1.10,2013-06-24 12:38:00,
2013-06-24 05:53:00,63.2,61.0,29.84,SSW,194,4.0,8.0,91,0.00,,,0.00,weatherlink.com 1.10,2013-06-24 12:53:00,
2013-06-24 06:23:00,63.1,61.0,29.85,SSW,192,1.0,7.0,92,0.00,,,0.00,weatherlink.com 1.10,2013-06-24 13:23:00,
2013-06-24 06:38:00,62.9,61.0,29.86,South,190,0.0,5.0,92,0.00,,,0.00,weatherlink.com 1.10,2013-06-24 13:38:00,
2013-06-24 06:53:00,62.7,61.0,29.86,South,189,0.0,3.0,93,0.00,,,0.00,weatherlink.com 1.10,2013-06-24 13:53:00,
2013-06-24 07:23:00,62.5,61.0,29.87,South,190,1.0,5.0,93,0.00,,,0.00,weatherlink.com 1.10,2013-06-24 14:23:00,
2013-06-24 07:38:00,62.5,61.0,29.87,South,188,1.0,4.0,94,0.00,,,0.00,weatherlink.com 1.10,2013-06-24 14:38:00,
2013-06-24 07:53:00,62.6,61.0,29.88,South,189,1.0,4.0,94,0.00,,,0.00,weatherlink.com 1.10,2013-06-24 14:53:00,
2013-06-24 08:08:00,62.7,61.0,29.89,South,189,3.0,5.0,94,0.00,,,0.00,weatherlink.com 1.10,2013-06-24 15:08:00,
2013-06-24 08:23:00,62.6,61.0,29.89,South,189,1.0,5.0,95,0.00,,,0.00,weatherlink.com 1.10,2013-06-24 15:23:00,
2013-06-24 08:53:00,63.4,62.0,29.90,South,189,2.0,5.0,95,0.00,,,0.00,weatherlink.com 1.10,2013-06-24 15:53:00,
2013-06-24 09:08:00,63.6,62.0,29.90,South,187,4.0,6.0,94,0.00,,,0.00,weatherlink.com 1.10,2013-06-24 16:08:00,
2013-06-24 09:23:00,64.1,62.0,29.90,South,184,5.0,6.0,94,0.00,,,0.00,weatherlink.com 1.10,2013-06-24 16:23:00,
2013-06-24 09:38:00,64.0,61.0,29.90,South,178,5.0,8.0,91,0.00,,,0.00,weatherlink.com 1.10,2013-06-24 16:38:00,
2013-06-24 10:08:00,64.4,61.0,29.91,SSE,154,1.0,7.0,88,0.00,,,0.00,weatherlink.com 1.10,2013-06-24 17:08:00,
2013-06-24 10:38:00,65.3,61.0,29.91,SSE,153,5.0,6.0,85,0.00,,,0.00,weatherlink.com 1.10,2013-06-24 17:38:00,
2013-06-24 10:53:00,65.5,61.0,29.91,SSE,149,3.0,6.0,84,0.00,,,0.00,weatherlink.com 1.10,2013-06-24 17:53:00,
2013-06-24 11:23:00,66.2,61.0,29.91,SE,145,2.0,9.0,82,0.00,,,0.00,weatherlink.com 1.10,2013-06-24 18:23:00,
2013-06-24 11:38:00,66.4,60.0,29.91,SSE,161,4.0,7.0,81,0.00,,,0.00,weatherlink.com 1.10,2013-06-24 18:38:00,
2013-06-24 11:53:00,67.0,61.0,29.90,SE,142,4.0,8.0,80,0.00,,,0.00,weatherlink.com 1.10,2013-06-24 18:53:00,
2013-06-24 12:08:00,67.2,61.0,29.91,SSE,158,4.0,8.0,80,0.00,,,0.00,weatherlink.com 1.10,2013-06-24 19:08:00,
2013-06-24 12:53:00,69.5,62.0,29.90,SSE,161,7.0,11.0,77,0.00,,,0.00,weatherlink.com 1.10,2013-06-24 19:53:00,
2013-06-24 13:24:00,71.1,62.0,29.91,SSW,200,6.0,7.0,73,0.00,,,0.00,weatherlink.com 1.10,2013-06-24 20:24:00,
2013-06-24 13:39:00,71.3,62.0,29.90,SSW,196,4.0,7.0,72,0.00,,,0.00,weatherlink.com 1.10,2013-06-24 20:39:00,
2013-06-24 13:54:00,71.4,62.0,29.91,SSW,206,5.0,7.0,71,0.00,,,0.00,weatherlink.com 1.10,2013-06-24 20:54:00,
2013-06-24 14:09:00,70.8,62.0,29.90,SSW,196,4.0,7.0,74,0.00,,,0.00,weatherlink.com 1.10,2013-06-24 21:09:00,
2013-06-24 14:24:00,70.7,62.0,29.90,SW,214,4.0,7.0,74,0.00,,,0.00,weatherlink.com 1.10,2013-06-24 21:24:00,
2013-06-24 14:39:00,70.8,62.0,29.89,SW,219,5.0,9.0,73,0.00,,,0.00,weatherlink.com 1.10,2013-06-24 21:39:00,
2013-06-24 14:54:00,71.2,63.0,29.89,SSW,213,3.0,7.0,74,0.00,,,0.00,weatherlink.com 1.10,2013-06-24 21:54:00,
2013-06-24 15:09:00,71.2,62.0,29.89,SW,221,2.0,9.0,73,0.00,,,0.00,weatherlink.com 1.10,2013-06-24 22:09:00,
2013-06-24 15:24:00,70.7,62.0,29.89,SW,220,4.0,9.0,74,0.00,,,0.00,weatherlink.com 1.10,2013-06-24 22:24:00,
2013-06-24 15:39:00,71.0,62.0,29.88,SW,220,7.0,9.0,73,0.00,,,0.00,weatherlink.com 1.10,2013-06-24 22:39:00,
2013-06-24 16:09:00,71.3,62.0,29.87,SSW,198,6.0,8.0,73,0.00,,,0.00,weatherlink.com 1.10,2013-06-24 23:09:00,
2013-06-24 16:39:00,71.5,62.0,29.87,SSW,194,7.0,9.0,73,0.00,,,0.00,weatherlink.com 1.10,2013-06-24 23:39:00,
2013-06-24 17:09:00,70.6,62.0,29.87,SW,220,7.0,8.0,75,0.00,,,0.00,weatherlink.com 1.10,2013-06-25 00:09:00,
2013-06-24 17:24:00,70.5,63.0,29.87,SW,219,3.0,9.0,76,0.00,,,0.00,weatherlink.com 1.10,2013-06-25 00:24:00,
2013-06-24 17:39:00,70.4,63.0,29.87,SW,229,8.0,10.0,76,0.00,,,0.00,weatherlink.com 1.10,2013-06-25 00:39:00,
2013-06-24 17:54:00,69.9,62.0,29.87,WSW,251,4.0,11.0,77,0.00,,,0.00,weatherlink.com 1.10,2013-06-25 00:54:00,
2013-06-24 18:09:00,69.8,63.0,29.87,WSW,240,4.0,10.0,78,0.00,,,0.00,weatherlink.com 1.10,2013-06-25 01:09:00,
2013-06-24 18:24:00,69.7,63.0,29.87,West,263,7.0,12.0,80,0.00,,,0.00,weatherlink.com 1.10,2013-06-25 01:24:00,
2013-06-24 18:39:00,69.1,63.0,29.87,West,270,9.0,14.0,81,0.00,,,0.00,weatherlink.com 1.10,2013-06-25 01:39:00,
2013-06-24 19:09:00,68.7,63.0,29.88,WSW,251,7.0,13.0,83,0.00,,,0.00,weatherlink.com 1.10,2013-06-25 02:09:00,
2013-06-24 19:24:00,68.3,63.0,29.88,West,280,10.0,13.0,84,0.00,,,0.00,weatherlink.com 1.10,2013-06-25 02:24:00,
2013-06-24 19:39:00,67.6,63.0,29.88,West,277,5.0,12.0,86,0.00,,,0.00,weatherlink.com 1.10,2013-06-25 02:39:00,
2013-06-24 19:54:00,67.1,63.0,29.88,West,276,9.0,13.0,86,0.00,,,0.00,weatherlink.com 1.10,2013-06-25 02:54:00,
2013-06-24 20:09:00,66.7,63.0,29.88,West,266,4.0,13.0,87,0.00,,,0.00,weatherlink.com 1.10,2013-06-25 03:09:00,
2013-06-24 20:25:00,66.7,63.0,29.88,West,279,9.0,12.0,88,0.00,,,0.00,weatherlink.com 1.10,2013-06-25 03:25:00,
2013-06-24 20:40:00,66.3,63.0,29.89,West,273,6.0,12.0,89,0.00,,,0.00,weatherlink.com 1.10,2013-06-25 03:40:00,
2013-06-24 20:55:00,66.1,63.0,29.89,West,277,10.0,12.0,89,0.00,,,0.00,weatherlink.com 1.10,2013-06-25 03:55:00,
2013-06-24 21:10:00,66.0,63.0,29.89,West,277,5.0,11.0,89,0.00,,,0.00,weatherlink.com 1.10,2013-06-25 04:10:00,
2013-06-24 21:25:00,66.1,63.0,29.89,WNW,284,7.0,14.0,89,0.00,,,0.00,weatherlink.com 1.10,2013-06-25 04:25:00,
2013-06-24 21:40:00,65.9,63.0,29.90,West,273,5.0,10.0,89,0.00,,,0.00,weatherlink.com 1.10,2013-06-25 04:40:00,
2013-06-24 21:55:00,65.9,63.0,29.90,WNW,282,6.0,11.0,90,0.00,,,0.00,weatherlink.com 1.10,2013-06-25 04:55:00,
2013-06-24 22:10:00,65.9,63.0,29.90,WNW,284,4.0,9.0,90,0.00,,,0.00,weatherlink.com 1.10,2013-06-25 05:10:00,
2013-06-24 22:25:00,65.9,63.0,29.90,West,277,6.0,9.0,91,0.00,,,0.00,weatherlink.com 1.10,2013-06-25 05:25:00,
2013-06-24 22:40:00,65.9,64.0,29.90,West,279,6.0,10.0,92,0.00,,,0.00,weatherlink.com 1.10,2013-06-25 05:40:00,
2013-06-24 22:55:00,65.7,63.0,29.90,West,277,2.0,9.0,92,0.00,,,0.00,weatherlink.com 1.10,2013-06-25 05:55:00,
2013-06-24 23:10:00,65.6,63.0,29.90,West,275,2.0,9.0,92,0.00,,,0.00,weatherlink.com 1.10,2013-06-25 06:10:00,
2013-06-24 23:25:00,65.6,63.0,29.90,West,267,4.0,8.0,92,0.00,,,0.00,weatherlink.com 1.10,2013-06-25 06:25:00,
2013-06-24 23:40:00,65.5,63.0,29.90,West,269,5.0,9.0,92,0.00,,,0.00,weatherlink.com 1.10,2013-06-25 06:40:00,
2013-06-24 23:55:00,65.5,63.0,29.90,West,272,7.0,8.0,92,0.00,,,0.00,weatherlink.com 1.10,2013-06-25 06:55:00,